sensor_id;sensor_type;location;lat;lon;timestamp;pressure;altitude;pressure_sealevel;temperature;humidity
82949;BME280;72736;50.236;18.876;2024-03-29T00:02:45;97357.64;;;9.41;71.08
82949;BME280;72736;50.236;18.876;2024-03-29T00:07:48;97386.17;;;9.36;71.33
82949;BME280;72736;50.236;18.876;2024-03-29T00:12:51;97391.84;;;9.33;71.41
82949;BME280;72736;50.236;18.876;2024-03-29T00:17:54;97403.34;;;9.30;71.53
82949;BME280;72736;50.236;18.876;2024-03-29T00:22:57;97399.07;;;9.27;71.43
82949;BME280;72736;50.236;18.876;2024-03-29T00:28:01;97423.42;;;9.23;71.33
82949;BME280;72736;50.236;18.876;2024-03-29T00:33:05;97432.83;;;9.16;71.38
82949;BME280;72736;50.236;18.876;2024-03-29T00:38:08;97442.87;;;9.10;71.16
82949;BME280;72736;50.236;18.876;2024-03-29T00:43:11;97449.70;;;9.01;71.10
82949;BME280;72736;50.236;18.876;2024-03-29T00:48:14;97452.64;;;8.95;71.23
82949;BME280;72736;50.236;18.876;2024-03-29T00:53:18;97462.72;;;8.89;71.11
82949;BME280;72736;50.236;18.876;2024-03-29T01:45:15;97570.20;;;8.44;70.93
82949;BME280;72736;50.236;18.876;2024-03-29T01:50:18;97591.94;;;8.41;70.86
82949;BME280;72736;50.236;18.876;2024-03-29T01:55:22;97601.55;;;8.30;70.93
82949;BME280;72736;50.236;18.876;2024-03-29T02:00:26;97611.42;;;8.18;71.08
82949;BME280;72736;50.236;18.876;2024-03-29T02:05:30;97627.92;;;8.10;71.17
82949;BME280;72736;50.236;18.876;2024-03-29T02:10:34;97638.79;;;8.01;71.37
82949;BME280;72736;50.236;18.876;2024-03-29T02:15:38;97647.48;;;7.95;71.33
82949;BME280;72736;50.236;18.876;2024-03-29T02:20:41;97663.14;;;7.90;71.52
82949;BME280;72736;50.236;18.876;2024-03-29T02:25:44;97676.55;;;7.84;71.44
82949;BME280;72736;50.236;18.876;2024-03-29T02:30:48;97690.94;;;7.80;71.58
82949;BME280;72736;50.236;18.876;2024-03-29T02:35:52;97693.16;;;7.75;71.44
82949;BME280;72736;50.236;18.876;2024-03-29T02:40:55;97697.75;;;7.71;71.48
82949;BME280;72736;50.236;18.876;2024-03-29T02:45:58;97711.86;;;7.63;71.52
82949;BME280;72736;50.236;18.876;2024-03-29T02:51:01;97712.99;;;7.58;71.61
82949;BME280;72736;50.236;18.876;2024-03-29T02:56:05;97711.80;;;7.51;71.67
82949;BME280;72736;50.236;18.876;2024-03-29T03:01:10;97718.67;;;7.45;71.68
82949;BME280;72736;50.236;18.876;2024-03-29T03:06:13;97730.12;;;7.41;71.69
82949;BME280;72736;50.236;18.876;2024-03-29T03:11:16;97736.84;;;7.34;71.60
82949;BME280;72736;50.236;18.876;2024-03-29T03:16:19;97739.39;;;7.24;71.73
82949;BME280;72736;50.236;18.876;2024-03-29T03:21:23;97735.46;;;7.17;71.86
82949;BME280;72736;50.236;18.876;2024-03-29T03:26:26;97727.68;;;7.12;71.88
82949;BME280;72736;50.236;18.876;2024-03-29T03:31:29;97731.34;;;7.07;71.79
82949;BME280;72736;50.236;18.876;2024-03-29T03:36:32;97729.43;;;7.01;71.81
82949;BME280;72736;50.236;18.876;2024-03-29T03:41:35;97732.20;;;6.99;72.08
82949;BME280;72736;50.236;18.876;2024-03-29T03:46:38;97734.39;;;6.97;71.72
82949;BME280;72736;50.236;18.876;2024-03-29T03:51:42;97726.86;;;6.95;71.75
82949;BME280;72736;50.236;18.876;2024-03-29T03:56:45;97725.61;;;6.93;71.54
82949;BME280;72736;50.236;18.876;2024-03-29T04:01:48;97733.79;;;6.91;71.42
82949;BME280;72736;50.236;18.876;2024-03-29T04:06:53;97728.84;;;6.86;71.31
82949;BME280;72736;50.236;18.876;2024-03-29T04:11:56;97729.59;;;6.79;71.26
82949;BME280;72736;50.236;18.876;2024-03-29T04:17:00;97731.92;;;6.75;71.11
82949;BME280;72736;50.236;18.876;2024-03-29T04:22:03;97727.70;;;6.71;70.95
82949;BME280;72736;50.236;18.876;2024-03-29T04:27:07;97740.49;;;6.67;70.97
82949;BME280;72736;50.236;18.876;2024-03-29T04:32:10;97749.61;;;6.64;70.98
82949;BME280;72736;50.236;18.876;2024-03-29T04:37:14;97762.66;;;6.61;70.97
82949;BME280;72736;50.236;18.876;2024-03-29T04:42:17;97780.50;;;6.57;71.02
82949;BME280;72736;50.236;18.876;2024-03-29T04:47:20;97794.59;;;6.55;71.39
82949;BME280;72736;50.236;18.876;2024-03-29T04:52:23;97799.75;;;6.54;71.34
82949;BME280;72736;50.236;18.876;2024-03-29T04:57:28;97804.46;;;6.61;71.29
82949;BME280;72736;50.236;18.876;2024-03-29T05:02:31;97802.31;;;6.74;71.40
82949;BME280;72736;50.236;18.876;2024-03-29T05:07:34;97802.31;;;6.89;71.13
82949;BME280;72736;50.236;18.876;2024-03-29T05:12:37;97799.00;;;6.99;70.89
82949;BME280;72736;50.236;18.876;2024-03-29T05:17:41;97807.66;;;7.06;70.86
82949;BME280;72736;50.236;18.876;2024-03-29T05:22:44;97811.50;;;7.14;70.72
82949;BME280;72736;50.236;18.876;2024-03-29T05:27:48;97823.83;;;7.23;70.55
82949;BME280;72736;50.236;18.876;2024-03-29T05:32:51;97837.90;;;7.35;70.42
82949;BME280;72736;50.236;18.876;2024-03-29T05:37:54;97841.73;;;7.45;69.90
82949;BME280;72736;50.236;18.876;2024-03-29T05:42:58;97840.07;;;7.65;69.84
82949;BME280;72736;50.236;18.876;2024-03-29T05:48:01;97843.27;;;7.89;69.42
82949;BME280;72736;50.236;18.876;2024-03-29T05:53:04;97854.80;;;8.14;68.74
82949;BME280;72736;50.236;18.876;2024-03-29T05:58:09;97861.20;;;8.32;68.18
82949;BME280;72736;50.236;18.876;2024-03-29T06:03:12;97859.60;;;8.46;67.77
82949;BME280;72736;50.236;18.876;2024-03-29T06:08:15;97868.67;;;8.62;67.27
82949;BME280;72736;50.236;18.876;2024-03-29T06:13:18;97866.64;;;8.84;66.90
82949;BME280;72736;50.236;18.876;2024-03-29T06:18:50;97852.64;;;9.15;65.95
82949;BME280;72736;50.236;18.876;2024-03-29T06:23:53;97839.65;;;9.44;65.55
82949;BME280;72736;50.236;18.876;2024-03-29T06:28:57;97834.16;;;9.94;64.83
82949;BME280;72736;50.236;18.876;2024-03-29T06:34:00;97843.09;;;10.43;63.41
82949;BME280;72736;50.236;18.876;2024-03-29T06:39:03;97851.54;;;10.93;62.01
82949;BME280;72736;50.236;18.876;2024-03-29T06:44:06;97852.21;;;11.35;61.21
82949;BME280;72736;50.236;18.876;2024-03-29T06:49:09;97867.59;;;11.82;60.32
82949;BME280;72736;50.236;18.876;2024-03-29T06:54:12;97874.08;;;12.26;59.16
82949;BME280;72736;50.236;18.876;2024-03-29T06:59:18;97873.14;;;12.67;58.05
82949;BME280;72736;50.236;18.876;2024-03-29T07:04:23;97864.55;;;13.06;57.72
82949;BME280;72736;50.236;18.876;2024-03-29T07:09:27;97843.89;;;13.51;56.64
82949;BME280;72736;50.236;18.876;2024-03-29T07:14:30;97851.88;;;13.91;55.11
82949;BME280;72736;50.236;18.876;2024-03-29T07:19:35;97855.78;;;14.21;54.76
82949;BME280;72736;50.236;18.876;2024-03-29T07:24:39;97872.45;;;14.54;53.92
82949;BME280;72736;50.236;18.876;2024-03-29T07:29:42;97883.70;;;14.82;52.65
82949;BME280;72736;50.236;18.876;2024-03-29T07:34:46;97892.91;;;15.06;51.70
82949;BME280;72736;50.236;18.876;2024-03-29T07:39:49;97903.17;;;15.21;50.78
82949;BME280;72736;50.236;18.876;2024-03-29T07:44:53;97910.67;;;15.20;50.22
82949;BME280;72736;50.236;18.876;2024-03-29T07:49:56;97911.00;;;15.25;50.33
82949;BME280;72736;50.236;18.876;2024-03-29T07:54:59;97908.10;;;15.27;49.43
82949;BME280;72736;50.236;18.876;2024-03-29T08:00:03;97903.83;;;15.23;49.32
82949;BME280;72736;50.236;18.876;2024-03-29T08:05:07;97912.69;;;15.38;49.59
82949;BME280;72736;50.236;18.876;2024-03-29T08:10:11;97916.08;;;15.58;48.86
82949;BME280;72736;50.236;18.876;2024-03-29T08:15:14;97920.50;;;15.67;48.08
82949;BME280;72736;50.236;18.876;2024-03-29T08:20:17;97921.85;;;15.68;47.83
82949;BME280;72736;50.236;18.876;2024-03-29T08:25:21;97916.42;;;15.78;47.89
82949;BME280;72736;50.236;18.876;2024-03-29T08:30:24;97925.29;;;15.76;46.97
82949;BME280;72736;50.236;18.876;2024-03-29T08:35:28;97928.24;;;15.77;47.39
82949;BME280;72736;50.236;18.876;2024-03-29T08:40:31;97919.33;;;15.89;47.82
82949;BME280;72736;50.236;18.876;2024-03-29T08:45:35;97916.52;;;16.04;46.94
82949;BME280;72736;50.236;18.876;2024-03-29T08:50:42;97928.59;;;16.05;45.80
82949;BME280;72736;50.236;18.876;2024-03-29T08:55:47;97922.60;;;15.99;46.40
82949;BME280;72736;50.236;18.876;2024-03-29T09:00:55;97920.75;;;16.04;45.98
82949;BME280;72736;50.236;18.876;2024-03-29T09:05:59;97921.41;;;16.04;46.00
82949;BME280;72736;50.236;18.876;2024-03-29T09:11:02;97912.69;;;16.09;45.85
82949;BME280;72736;50.236;18.876;2024-03-29T09:16:06;97911.87;;;16.14;45.75
82949;BME280;72736;50.236;18.876;2024-03-29T09:21:11;97913.30;;;16.21;45.32
82949;BME280;72736;50.236;18.876;2024-03-29T09:26:14;97917.95;;;16.23;44.83
82949;BME280;72736;50.236;18.876;2024-03-29T09:31:17;97924.15;;;16.27;45.30
82949;BME280;72736;50.236;18.876;2024-03-29T09:36:22;97924.55;;;16.33;44.59
82949;BME280;72736;50.236;18.876;2024-03-29T09:41:26;97919.48;;;16.33;43.71
82949;BME280;72736;50.236;18.876;2024-03-29T09:46:32;97917.38;;;16.33;43.73
82949;BME280;72736;50.236;18.876;2024-03-29T09:51:36;97920.56;;;16.32;43.12
82949;BME280;72736;50.236;18.876;2024-03-29T09:56:41;97908.60;;;16.35;42.99
82949;BME280;72736;50.236;18.876;2024-03-29T10:07:17;97905.36;;;16.50;43.50
82949;BME280;72736;50.236;18.876;2024-03-29T10:12:24;97899.12;;;16.55;43.27
82949;BME280;72736;50.236;18.876;2024-03-29T10:17:27;97893.98;;;16.64;42.95
82949;BME280;72736;50.236;18.876;2024-03-29T10:22:30;97881.80;;;16.70;41.68
82949;BME280;72736;50.236;18.876;2024-03-29T10:27:39;97889.67;;;16.73;40.38
82949;BME280;72736;50.236;18.876;2024-03-29T10:32:42;97887.12;;;16.75;40.47
82949;BME280;72736;50.236;18.876;2024-03-29T10:37:46;97877.88;;;16.84;40.52
82949;BME280;72736;50.236;18.876;2024-03-29T10:42:49;97867.95;;;16.92;40.07
82949;BME280;72736;50.236;18.876;2024-03-29T10:47:54;97870.97;;;16.94;38.82
82949;BME280;72736;50.236;18.876;2024-03-29T10:53:01;97865.61;;;16.92;38.99
82949;BME280;72736;50.236;18.876;2024-03-29T10:58:05;97861.59;;;16.96;39.48
82949;BME280;72736;50.236;18.876;2024-03-29T11:03:13;97853.71;;;17.01;38.60
82949;BME280;72736;50.236;18.876;2024-03-29T11:08:21;97843.95;;;17.04;38.36
82949;BME280;72736;50.236;18.876;2024-03-29T11:13:29;97836.89;;;17.08;40.08
82949;BME280;72736;50.236;18.876;2024-03-29T11:18:36;97828.08;;;17.19;39.63
82949;BME280;72736;50.236;18.876;2024-03-29T11:23:42;97825.30;;;17.27;38.71
82949;BME280;72736;50.236;18.876;2024-03-29T11:28:49;97818.21;;;17.27;38.41
82949;BME280;72736;50.236;18.876;2024-03-29T11:33:52;97806.89;;;17.29;39.12
82949;BME280;72736;50.236;18.876;2024-03-29T11:38:57;97798.48;;;17.32;38.44
82949;BME280;72736;50.236;18.876;2024-03-29T11:44:00;97782.00;;;17.33;37.56
82949;BME280;72736;50.236;18.876;2024-03-29T11:49:03;97784.34;;;17.32;37.34
82949;BME280;72736;50.236;18.876;2024-03-29T11:54:07;97785.46;;;17.39;37.07
82949;BME280;72736;50.236;18.876;2024-03-29T11:59:10;97771.62;;;17.47;36.53
82949;BME280;72736;50.236;18.876;2024-03-29T12:04:20;97763.20;;;17.54;36.27
82949;BME280;72736;50.236;18.876;2024-03-29T12:09:24;97762.29;;;17.60;35.62
82949;BME280;72736;50.236;18.876;2024-03-29T12:14:27;97766.36;;;17.64;35.96
82949;BME280;72736;50.236;18.876;2024-03-29T12:19:32;97765.45;;;17.63;35.43
82949;BME280;72736;50.236;18.876;2024-03-29T12:24:39;97768.00;;;17.62;35.82
82949;BME280;72736;50.236;18.876;2024-03-29T12:29:42;97770.54;;;17.58;35.59
82949;BME280;72736;50.236;18.876;2024-03-29T12:34:46;97766.64;;;17.58;35.92
82949;BME280;72736;50.236;18.876;2024-03-29T12:39:49;97753.80;;;17.62;35.44
82949;BME280;72736;50.236;18.876;2024-03-29T12:44:54;97745.24;;;17.63;35.23
82949;BME280;72736;50.236;18.876;2024-03-29T12:49:59;97735.84;;;17.66;36.28
82949;BME280;72736;50.236;18.876;2024-03-29T12:55:03;97718.25;;;17.73;36.87
82949;BME280;72736;50.236;18.876;2024-03-29T13:00:09;97717.77;;;17.82;36.65
82949;BME280;72736;50.236;18.876;2024-03-29T13:05:12;97710.17;;;17.82;35.81
82949;BME280;72736;50.236;18.876;2024-03-29T13:10:15;97710.83;;;17.78;37.02
82949;BME280;72736;50.236;18.876;2024-03-29T13:15:23;97720.02;;;17.83;39.55
82949;BME280;72736;50.236;18.876;2024-03-29T13:20:27;97713.80;;;17.94;38.01
82949;BME280;72736;50.236;18.876;2024-03-29T13:25:30;97711.13;;;17.99;38.42
82949;BME280;72736;50.236;18.876;2024-03-29T13:30:34;97715.43;;;18.05;39.48
82949;BME280;72736;50.236;18.876;2024-03-29T13:35:45;97713.45;;;18.12;40.19
82949;BME280;72736;50.236;18.876;2024-03-29T13:40:48;97706.31;;;18.14;38.60
82949;BME280;72736;50.236;18.876;2024-03-29T13:45:51;97697.24;;;18.11;38.25
82949;BME280;72736;50.236;18.876;2024-03-29T13:50:54;97698.66;;;18.11;38.35
82949;BME280;72736;50.236;18.876;2024-03-29T13:55:58;97718.96;;;18.08;38.63
82949;BME280;72736;50.236;18.876;2024-03-29T14:01:01;97709.75;;;18.05;39.42
82949;BME280;72736;50.236;18.876;2024-03-29T14:06:05;97713.48;;;18.02;41.51
82949;BME280;72736;50.236;18.876;2024-03-29T14:11:09;97724.37;;;18.02;40.33
82949;BME280;72736;50.236;18.876;2024-03-29T14:16:13;97724.05;;;18.05;40.34
82949;BME280;72736;50.236;18.876;2024-03-29T14:21:16;97712.61;;;18.06;39.97
82949;BME280;72736;50.236;18.876;2024-03-29T14:26:19;97706.92;;;18.09;41.87
82949;BME280;72736;50.236;18.876;2024-03-29T14:31:22;97710.02;;;18.17;41.12
82949;BME280;72736;50.236;18.876;2024-03-29T14:36:28;97709.77;;;18.15;41.25
82949;BME280;72736;50.236;18.876;2024-03-29T14:41:35;97716.20;;;18.13;40.88
82949;BME280;72736;50.236;18.876;2024-03-29T14:46:42;97706.25;;;18.03;40.22
82949;BME280;72736;50.236;18.876;2024-03-29T14:51:45;97701.96;;;17.91;40.96
82949;BME280;72736;50.236;18.876;2024-03-29T14:56:47;97704.70;;;17.78;40.10
82949;BME280;72736;50.236;18.876;2024-03-29T15:01:50;97703.12;;;17.57;40.23
82949;BME280;72736;50.236;18.876;2024-03-29T15:06:53;97707.56;;;17.37;40.24
82949;BME280;72736;50.236;18.876;2024-03-29T15:11:56;97717.23;;;17.24;40.87
82949;BME280;72736;50.236;18.876;2024-03-29T15:16:59;97722.29;;;17.16;41.34
82949;BME280;72736;50.236;18.876;2024-03-29T15:22:02;97723.42;;;17.12;41.93
82949;BME280;72736;50.236;18.876;2024-03-29T15:27:05;97716.70;;;17.05;41.86
82949;BME280;72736;50.236;18.876;2024-03-29T15:32:18;97722.80;;;16.97;42.45
82949;BME280;72736;50.236;18.876;2024-03-29T15:37:21;97728.82;;;16.88;42.65
82949;BME280;72736;50.236;18.876;2024-03-29T15:42:24;97729.64;;;16.78;42.92
82949;BME280;72736;50.236;18.876;2024-03-29T15:47:27;97729.83;;;16.68;43.13
82949;BME280;72736;50.236;18.876;2024-03-29T15:52:30;97728.74;;;16.61;43.67
82949;BME280;72736;50.236;18.876;2024-03-29T15:57:33;97720.08;;;16.55;44.15
82949;BME280;72736;50.236;18.876;2024-03-29T16:02:46;97714.45;;;16.48;44.58
82949;BME280;72736;50.236;18.876;2024-03-29T16:07:50;97711.81;;;16.40;45.06
82949;BME280;72736;50.236;18.876;2024-03-29T16:12:53;97705.42;;;16.33;45.46
82949;BME280;72736;50.236;18.876;2024-03-29T16:17:56;97693.64;;;16.26;45.74
82949;BME280;72736;50.236;18.876;2024-03-29T16:22:59;97692.23;;;16.19;45.96
82949;BME280;72736;50.236;18.876;2024-03-29T16:28:04;97682.83;;;16.11;45.79
82949;BME280;72736;50.236;18.876;2024-03-29T16:33:08;97690.21;;;16.05;46.01
82949;BME280;72736;50.236;18.876;2024-03-29T16:38:12;97687.05;;;16.00;46.63
82949;BME280;72736;50.236;18.876;2024-03-29T16:43:15;97695.23;;;15.95;47.12
82949;BME280;72736;50.236;18.876;2024-03-29T16:48:18;97702.77;;;15.90;47.33
82949;BME280;72736;50.236;18.876;2024-03-29T16:53:21;97708.17;;;15.86;47.52
82949;BME280;72736;50.236;18.876;2024-03-29T16:58:28;97704.48;;;15.83;48.04
82949;BME280;72736;50.236;18.876;2024-03-29T17:03:31;97703.64;;;15.79;48.20
82949;BME280;72736;50.236;18.876;2024-03-29T17:08:34;97713.25;;;15.73;47.90
82949;BME280;72736;50.236;18.876;2024-03-29T17:13:37;97711.33;;;15.66;48.40
82949;BME280;72736;50.236;18.876;2024-03-29T17:18:40;97701.85;;;15.59;48.65
82949;BME280;72736;50.236;18.876;2024-03-29T17:23:43;97699.51;;;15.51;49.23
82949;BME280;72736;50.236;18.876;2024-03-29T17:28:46;97694.69;;;15.43;49.34
82949;BME280;72736;50.236;18.876;2024-03-29T17:33:49;97697.79;;;15.36;49.84
82949;BME280;72736;50.236;18.876;2024-03-29T17:38:52;97696.55;;;15.29;50.19
82949;BME280;72736;50.236;18.876;2024-03-29T17:43:55;97692.20;;;15.22;50.68
82949;BME280;72736;50.236;18.876;2024-03-29T17:48:58;97695.45;;;15.15;51.09
82949;BME280;72736;50.236;18.876;2024-03-29T17:54:02;97690.02;;;15.09;51.37
82949;BME280;72736;50.236;18.876;2024-03-29T17:59:07;97692.41;;;15.05;51.48
82949;BME280;72736;50.236;18.876;2024-03-29T18:04:10;97696.41;;;14.98;52.01
82949;BME280;72736;50.236;18.876;2024-03-29T18:09:14;97697.70;;;14.91;52.11
82949;BME280;72736;50.236;18.876;2024-03-29T18:14:16;97704.29;;;14.85;52.34
82949;BME280;72736;50.236;18.876;2024-03-29T18:19:19;97714.11;;;14.82;52.10
82949;BME280;72736;50.236;18.876;2024-03-29T18:24:22;97708.72;;;14.77;52.90
82949;BME280;72736;50.236;18.876;2024-03-29T18:29:25;97707.12;;;14.71;52.57
82949;BME280;72736;50.236;18.876;2024-03-29T18:34:28;97712.72;;;14.67;53.20
82949;BME280;72736;50.236;18.876;2024-03-29T18:39:31;97722.32;;;14.64;52.96
82949;BME280;72736;50.236;18.876;2024-03-29T18:44:34;97722.19;;;14.58;53.67
82949;BME280;72736;50.236;18.876;2024-03-29T18:49:37;97713.70;;;14.53;53.89
82949;BME280;72736;50.236;18.876;2024-03-29T18:54:40;97712.09;;;14.48;53.90
82949;BME280;72736;50.236;18.876;2024-03-29T18:59:43;97714.89;;;14.40;54.43
82949;BME280;72736;50.236;18.876;2024-03-29T19:04:46;97707.28;;;14.32;54.71
82949;BME280;72736;50.236;18.876;2024-03-29T19:09:49;97700.15;;;14.25;55.01
82949;BME280;72736;50.236;18.876;2024-03-29T19:14:52;97699.29;;;14.18;55.37
82949;BME280;72736;50.236;18.876;2024-03-29T19:19:55;97707.72;;;14.12;55.85
82949;BME280;72736;50.236;18.876;2024-03-29T19:24:58;97710.84;;;14.08;55.86
82949;BME280;72736;50.236;18.876;2024-03-29T19:30:02;97709.76;;;14.06;56.35
82949;BME280;72736;50.236;18.876;2024-03-29T19:35:07;97708.90;;;14.03;56.51
82949;BME280;72736;50.236;18.876;2024-03-29T19:40:11;97712.22;;;14.00;56.65
82949;BME280;72736;50.236;18.876;2024-03-29T19:45:15;97709.10;;;13.98;56.69
82949;BME280;72736;50.236;18.876;2024-03-29T19:50:18;97707.54;;;13.97;56.78
82949;BME280;72736;50.236;18.876;2024-03-29T19:55:21;97702.84;;;13.95;56.92
82949;BME280;72736;50.236;18.876;2024-03-29T20:00:24;97699.93;;;13.92;57.23
82949;BME280;72736;50.236;18.876;2024-03-29T20:05:27;97700.89;;;13.89;57.35
82949;BME280;72736;50.236;18.876;2024-03-29T20:10:29;97693.08;;;13.83;57.97
82949;BME280;72736;50.236;18.876;2024-03-29T20:15:37;97691.39;;;13.77;57.92
82949;BME280;72736;50.236;18.876;2024-03-29T20:20:47;97691.36;;;13.73;58.16
82949;BME280;72736;50.236;18.876;2024-03-29T20:25:50;97691.25;;;13.68;58.46
82949;BME280;72736;50.236;18.876;2024-03-29T20:30:53;97688.31;;;13.63;58.52
82949;BME280;72736;50.236;18.876;2024-03-29T20:35:56;97697.73;;;13.61;59.06
82949;BME280;72736;50.236;18.876;2024-03-29T20:40:59;97701.90;;;13.57;59.31
82949;BME280;72736;50.236;18.876;2024-03-29T20:46:01;97703.62;;;13.53;59.32
82949;BME280;72736;50.236;18.876;2024-03-29T20:51:06;97709.25;;;13.49;59.74
82949;BME280;72736;50.236;18.876;2024-03-29T20:56:09;97706.27;;;13.45;59.87
82949;BME280;72736;50.236;18.876;2024-03-29T21:01:13;97699.75;;;13.42;60.07
82949;BME280;72736;50.236;18.876;2024-03-29T21:06:21;97701.61;;;13.39;59.93
82949;BME280;72736;50.236;18.876;2024-03-29T21:11:23;97699.83;;;13.38;60.42
82949;BME280;72736;50.236;18.876;2024-03-29T21:16:27;97696.61;;;13.36;60.38
82949;BME280;72736;50.236;18.876;2024-03-29T21:21:29;97693.59;;;13.35;60.59
82949;BME280;72736;50.236;18.876;2024-03-29T21:26:33;97696.81;;;13.35;60.70
82949;BME280;72736;50.236;18.876;2024-03-29T21:31:38;97701.23;;;13.31;60.71
82949;BME280;72736;50.236;18.876;2024-03-29T21:36:41;97704.75;;;13.25;61.12
82949;BME280;72736;50.236;18.876;2024-03-29T21:41:48;97711.88;;;13.21;60.92
82949;BME280;72736;50.236;18.876;2024-03-29T21:46:52;97719.09;;;13.15;61.20
82949;BME280;72736;50.236;18.876;2024-03-29T21:51:55;97720.12;;;13.00;61.37
82949;BME280;72736;50.236;18.876;2024-03-29T21:56:58;97718.11;;;12.90;61.66
82949;BME280;72736;50.236;18.876;2024-03-29T22:02:02;97713.06;;;12.80;62.32
82949;BME280;72736;50.236;18.876;2024-03-29T22:07:05;97709.77;;;12.71;62.31
82949;BME280;72736;50.236;18.876;2024-03-29T22:12:09;97712.10;;;12.61;62.68
82949;BME280;72736;50.236;18.876;2024-03-29T22:17:12;97715.94;;;12.56;62.72
82949;BME280;72736;50.236;18.876;2024-03-29T22:22:14;97713.63;;;12.45;63.14
82949;BME280;72736;50.236;18.876;2024-03-29T22:27:17;97719.11;;;12.34;63.23
82949;BME280;72736;50.236;18.876;2024-03-29T22:32:20;97716.39;;;12.24;63.32
82949;BME280;72736;50.236;18.876;2024-03-29T22:37:23;97716.10;;;12.11;63.42
82949;BME280;72736;50.236;18.876;2024-03-29T22:42:26;97709.11;;;11.98;63.44
82949;BME280;72736;50.236;18.876;2024-03-29T22:47:29;97706.01;;;11.83;63.90
82949;BME280;72736;50.236;18.876;2024-03-29T22:52:32;97701.03;;;11.70;64.33
82949;BME280;72736;50.236;18.876;2024-03-29T22:57:35;97702.63;;;11.55;64.43
82949;BME280;72736;50.236;18.876;2024-03-29T23:02:39;97696.73;;;11.46;64.53
82949;BME280;72736;50.236;18.876;2024-03-29T23:07:42;97698.80;;;11.37;65.11
82949;BME280;72736;50.236;18.876;2024-03-29T23:12:44;97697.88;;;11.27;65.32
82949;BME280;72736;50.236;18.876;2024-03-29T23:17:48;97708.51;;;11.20;65.50
82949;BME280;72736;50.236;18.876;2024-03-29T23:22:53;97702.70;;;11.10;65.71
82949;BME280;72736;50.236;18.876;2024-03-29T23:28:00;97704.33;;;10.97;66.23
82949;BME280;72736;50.236;18.876;2024-03-29T23:33:04;97705.79;;;10.91;66.58
82949;BME280;72736;50.236;18.876;2024-03-29T23:38:07;97708.23;;;10.88;66.95
82949;BME280;72736;50.236;18.876;2024-03-29T23:43:11;97703.70;;;10.83;66.82
82949;BME280;72736;50.236;18.876;2024-03-29T23:48:14;97699.27;;;10.74;66.85
82949;BME280;72736;50.236;18.876;2024-03-29T23:53:17;97697.73;;;10.67;66.88
82949;BME280;72736;50.236;18.876;2024-03-29T23:58:21;97700.00;;;10.62;67.06
